Search for airport 
image banner adimage banner adimage banner ad
image banner ad

70CA - The Wilshire Thayer

Located in Los Angeles, United States

ICAO - 70CA, IATA -

Data provided by Airmate  

General information

Coordinates: N34°3'45" W118°25'57"
Elevation is 470 feet MSL.
Magnetic variation is 14° East
View others Airports in California

Operational data

Special qualification required
Current time UTC:
Current local time:
Weather at : KSMO - Santa Monica Muni ( 5 km )
METAR: KSMO 211151Z AUTO 22003KT 10SM OVC008 17/14 A2995 RMK AO2 SLP140 T01720144 10178 20167 53008
TAF: KSMO 211124Z 2112/2212 VRB03KT P6SM OVC009 FM211700 23005KT P6SM BKN012 FM211900 23010KT P6SM SCT015 FM220200 24006KT P6SM SCT007 FM220400 VRB03KT P6SM BKN007 FM220900 VRB03KT P6SM OVC012
View NOTAMs / SUP AIP / TFR affecting this airport [VIEW]
Communications frequencies: [VIEW]

Runways:

Airport contact information

Address: Los Angeles United States

Satellite view of 70CA